Time;durP1;ratioP1;P1;durP2;ratioP2;P2;SDS_P1;SDS_P2;PMS_P1;PMS_P2;Temp;Humidity;BMP_temperature;BMP_pressure;BME280_temperature;BME280_humidity;BME280_pressure;Samples;Min_cycle;Max_cycle;Signal;HPM_P1;HPM_P2
2024/04/02 00:01:31;;;;;;;1.33;0.60;;;11.40;99.90;;;;;;4163134;28;20040;-67
2024/04/02 00:03:32;;;;;;;3.45;0.93;;;11.40;99.90;;;;;;4164035;28;20462;-67
2024/04/02 00:05:37;;;;;;;1.88;0.80;;;11.30;99.90;;;;;;4162966;28;20054;-66
2024/04/02 00:07:38;;;;;;;1.98;0.80;;;11.30;99.90;;;;;;4156240;28;20127;-66
2024/04/02 00:09:38;;;;;;;2.58;0.70;;;11.40;99.90;;;;;;4163728;28;20037;-67
2024/04/02 00:11:39;;;;;;;1.50;0.70;;;11.30;99.90;;;;;;4162640;28;20447;-67
2024/04/02 00:13:40;;;;;;;0.98;0.65;;;11.30;99.90;;;;;;4163591;28;20037;-67
2024/04/02 00:15:44;;;;;;;4.47;1.10;;;11.30;99.90;;;;;;4163059;28;20030;-67
2024/04/02 00:17:45;;;;;;;2.33;0.82;;;11.30;99.90;;;;;;4163553;28;20040;-67
2024/04/02 00:19:46;;;;;;;1.60;0.75;;;11.30;99.90;;;;;;4163361;28;20030;-67
2024/04/02 00:21:46;;;;;;;1.80;0.70;;;11.20;99.90;;;;;;4162361;28;20112;-67
2024/04/02 00:23:47;;;;;;;2.72;0.63;;;11.20;99.90;;;;;;4163509;28;20029;-67
2024/04/02 00:25:47;;;;;;;1.17;0.70;;;11.20;99.90;;;;;;4160475;28;20493;-67
2024/04/02 00:27:48;;;;;;;1.08;0.52;;;11.20;99.90;;;;;;4161268;28;20367;-67
2024/04/02 00:29:48;;;;;;;2.63;0.80;;;11.10;99.90;;;;;;4157528;28;20675;-67
2024/04/02 00:31:49;;;;;;;2.15;0.68;;;11.10;99.90;;;;;;4161275;28;20041;-67
2024/04/02 00:33:50;;;;;;;2.20;0.70;;;11.10;99.90;;;;;;4161867;28;20026;-67
2024/04/02 00:36:00;;;;;;;2.53;0.90;;;11.10;99.90;;;;;;4153835;28;20103;-67
2024/04/02 00:38:00;;;;;;;1.58;0.82;;;11.10;99.90;;;;;;4159504;28;20033;-67
2024/04/02 00:40:01;;;;;;;1.55;0.82;;;11.00;99.90;;;;;;4159043;28;20088;-67
2024/04/02 00:42:02;;;;;;;2.85;1.08;;;11.00;99.90;;;;;;4160338;28;20092;-67
2024/04/02 00:44:02;;;;;;;5.50;0.65;;;11.00;99.90;;;;;;4157554;28;20056;-67
2024/04/02 00:46:03;;;;;;;1.88;0.52;;;11.00;99.90;;;;;;4156152;28;20030;-67
2024/04/02 00:48:04;;;;;;;2.05;0.90;;;10.90;99.90;;;;;;4161071;28;20036;-67
2024/04/02 00:50:05;;;;;;;2.33;0.98;;;11.00;99.90;;;;;;4160572;28;20425;-69
2024/04/02 00:52:06;;;;;;;1.30;0.57;;;10.90;99.90;;;;;;4161401;28;20061;-66
2024/04/02 00:54:07;;;;;;;1.15;0.73;;;10.90;99.90;;;;;;4158859;28;20040;-68
2024/04/02 00:56:09;;;;;;;2.10;0.98;;;10.90;99.90;;;;;;4158989;28;20026;-66
2024/04/02 00:58:10;;;;;;;2.28;0.80;;;10.90;99.90;;;;;;4161186;28;20026;-67
2024/04/02 01:00:11;;;;;;;3.97;0.65;;;10.90;99.90;;;;;;4160517;28;20057;-68
2024/04/02 01:02:12;;;;;;;0.80;0.70;;;10.90;99.90;;;;;;4160914;28;20393;-67
2024/04/02 01:04:13;;;;;;;2.15;0.52;;;10.90;99.90;;;;;;4161102;28;20060;-67
2024/04/02 01:06:14;;;;;;;4.28;0.93;;;10.90;99.90;;;;;;4160237;28;20041;-67
2024/04/02 01:08:14;;;;;;;2.28;1.02;;;10.80;99.90;;;;;;4161554;28;20087;-67
2024/04/02 01:10:15;;;;;;;1.98;0.73;;;10.80;99.90;;;;;;4160008;28;20041;-67
2024/04/02 01:12:16;;;;;;;2.63;0.80;;;10.80;99.90;;;;;;4158927;28;20116;-67
2024/04/02 01:14:16;;;;;;;2.35;0.80;;;10.80;99.90;;;;;;4159739;28;20478;-67
2024/04/02 01:16:18;;;;;;;3.88;0.90;;;10.80;99.90;;;;;;4190396;28;20461;-67
2024/04/02 01:18:18;;;;;;;2.15;0.88;;;10.70;99.90;;;;;;4160703;28;20512;-67
2024/04/02 01:20:19;;;;;;;2.85;1.02;;;10.70;99.90;;;;;;4158418;28;20056;-67
2024/04/02 01:22:20;;;;;;;1.92;0.82;;;10.70;99.90;;;;;;4160607;28;20045;-67
2024/04/02 01:24:20;;;;;;;1.48;0.70;;;10.70;99.90;;;;;;4157077;28;20025;-67
2024/04/02 01:26:21;;;;;;;2.45;0.77;;;10.70;99.90;;;;;;4160469;28;20029;-64
2024/04/02 01:28:21;;;;;;;1.25;0.68;;;10.70;99.90;;;;;;4161721;28;20034;-65
2024/04/02 01:30:22;;;;;;;2.13;0.82;;;10.70;99.90;;;;;;4160669;28;20068;-65
2024/04/02 01:32:22;;;;;;;3.13;0.90;;;10.70;99.90;;;;;;4161277;28;20470;-64
2024/04/02 01:34:23;;;;;;;3.60;0.88;;;10.70;99.90;;;;;;4156454;28;20182;-65
2024/04/02 01:36:24;;;;;;;1.15;0.82;;;10.60;99.90;;;;;;4187760;28;20365;-65
2024/04/02 01:38:24;;;;;;;4.30;0.88;;;10.60;99.90;;;;;;4161270;28;20064;-65
2024/04/02 01:40:25;;;;;;;2.85;0.77;;;10.60;99.90;;;;;;4158583;28;20037;-64
2024/04/02 01:42:26;;;;;;;1.33;0.60;;;10.70;99.90;;;;;;4158610;28;20560;-64
2024/04/02 01:44:26;;;;;;;2.25;0.80;;;10.70;99.90;;;;;;4155187;28;20072;-65
2024/04/02 01:46:27;;;;;;;1.73;0.60;;;10.70;99.90;;;;;;4157469;28;20037;-65
2024/04/02 01:48:27;;;;;;;1.58;0.70;;;10.70;99.90;;;;;;4159670;28;20029;-65
2024/04/02 01:50:28;;;;;;;3.33;0.93;;;10.70;99.90;;;;;;4160788;28;20029;-65
2024/04/02 01:52:29;;;;;;;2.08;0.82;;;10.70;99.90;;;;;;4160945;28;20037;-65
2024/04/02 01:54:29;;;;;;;3.65;0.90;;;10.60;99.90;;;;;;4159081;28;20037;-65
2024/04/02 01:56:30;;;;;;;1.85;0.90;;;10.60;99.90;;;;;;4158369;28;20097;-65
2024/04/02 01:58:30;;;;;;;3.10;0.80;;;10.60;99.90;;;;;;4158395;28;20037;-64
2024/04/02 02:00:31;;;;;;;1.50;0.90;;;10.60;99.90;;;;;;4160562;28;20509;-65
2024/04/02 02:02:32;;;;;;;2.90;0.90;;;10.60;99.90;;;;;;4160044;28;20091;-65
2024/04/02 02:04:32;;;;;;;2.08;1.10;;;10.60;99.90;;;;;;4154085;28;20030;-65
2024/04/02 02:06:33;;;;;;;2.55;0.75;;;10.60;99.90;;;;;;4158164;28;20215;-65
2024/04/02 02:08:34;;;;;;;1.85;0.65;;;10.60;99.90;;;;;;4161130;28;20365;-65
2024/04/02 02:10:35;;;;;;;2.70;0.75;;;10.60;99.90;;;;;;4160496;28;20033;-64
2024/04/02 02:12:35;;;;;;;3.03;0.98;;;10.60;99.90;;;;;;4160792;28;20032;-64
2024/04/02 02:14:36;;;;;;;4.00;0.90;;;10.60;99.90;;;;;;4160516;28;20033;-65
2024/04/02 02:16:36;;;;;;;3.95;1.38;;;10.50;99.90;;;;;;4159282;28;20033;-64
2024/04/02 02:18:37;;;;;;;2.83;0.90;;;10.60;99.90;;;;;;4161546;28;20029;-64
2024/04/02 02:20:37;;;;;;;2.40;1.15;;;10.60;99.90;;;;;;4159724;28;20053;-65
2024/04/02 02:22:38;;;;;;;2.83;1.02;;;10.50;99.90;;;;;;4161322;28;20033;-65
2024/04/02 02:24:39;;;;;;;1.92;0.82;;;10.60;99.90;;;;;;4155614;28;20026;-65
2024/04/02 02:26:39;;;;;;;1.42;0.77;;;10.60;99.90;;;;;;4159946;28;20559;-66
2024/04/02 02:28:40;;;;;;;3.95;0.80;;;10.60;99.90;;;;;;4159640;28;20029;-64
2024/04/02 02:30:40;;;;;;;4.72;1.70;;;10.50;99.90;;;;;;4159966;28;20033;-65
2024/04/02 02:32:41;;;;;;;3.28;1.13;;;10.50;99.90;;;;;;4159528;28;20547;-66
2024/04/02 02:34:42;;;;;;;0.90;0.70;;;10.50;99.90;;;;;;4158766;28;20132;-64
2024/04/02 02:36:42;;;;;;;1.05;0.50;;;10.50;99.90;;;;;;4156851;28;20057;-64
2024/04/02 02:38:46;;;;;;;1.15;0.60;;;10.60;99.90;;;;;;4159843;28;20482;-64
2024/04/02 02:40:47;;;;;;;4.88;0.90;;;10.60;99.90;;;;;;4161119;28;20041;-64
2024/04/02 02:42:48;;;;;;;3.28;0.85;;;10.60;99.90;;;;;;4160971;28;20033;-64
2024/04/02 02:44:49;;;;;;;3.88;0.90;;;10.50;99.90;;;;;;4160206;28;20045;-64
2024/04/02 02:46:49;;;;;;;2.00;1.10;;;10.50;99.90;;;;;;4160795;28;20037;-64
2024/04/02 02:48:50;;;;;;;3.25;1.10;;;10.50;99.90;;;;;;4162029;28;20026;-64
2024/04/02 02:50:51;;;;;;;0.95;0.68;;;10.50;99.90;;;;;;4160581;28;20466;-63
2024/04/02 02:52:52;;;;;;;3.30;1.10;;;10.50;99.90;;;;;;4161688;28;20072;-64
2024/04/02 02:54:52;;;;;;;1.98;0.90;;;10.50;99.90;;;;;;4161870;28;20436;-64
2024/04/02 02:56:53;;;;;;;1.70;0.60;;;10.40;99.90;;;;;;4161364;28;20107;-64
2024/04/02 02:58:53;;;;;;;2.05;0.98;;;10.50;99.90;;;;;;4161848;28;20486;-64
2024/04/02 03:00:54;;;;;;;2.00;0.90;;;10.50;99.90;;;;;;4161359;28;20049;-64
2024/04/02 03:02:55;;;;;;;3.05;0.85;;;10.50;99.90;;;;;;4161872;28;20413;-64
2024/04/02 03:04:56;;;;;;;3.40;0.85;;;10.50;99.90;;;;;;4161790;28;20505;-64
2024/04/02 03:06:57;;;;;;;2.17;0.90;;;10.50;99.90;;;;;;4160731;28;20041;-64
2024/04/02 03:08:57;;;;;;;1.50;0.70;;;10.50;99.90;;;;;;4163126;28;20113;-64
2024/04/02 03:11:05;;;;;;;2.10;0.80;;;10.50;99.90;;;;;;4164146;28;20060;-64
2024/04/02 03:13:05;;;;;;;1.38;0.55;;;10.50;99.90;;;;;;4164899;28;20045;-64
2024/04/02 03:15:06;;;;;;;1.50;0.80;;;10.50;99.90;;;;;;4159057;28;20018;-65
2024/04/02 03:17:07;;;;;;;3.53;0.93;;;10.50;99.90;;;;;;4161493;28;20103;-64
2024/04/02 03:19:07;;;;;;;2.55;1.05;;;10.40;99.90;;;;;;4164869;28;20025;-64
2024/04/02 03:21:13;;;;;;;2.03;0.90;;;10.50;99.90;;;;;;4162795;28;20047;-64
2024/04/02 03:23:16;;;;;;;2.97;1.05;;;10.40;99.90;;;;;;4153675;28;20085;-65
2024/04/02 03:25:16;;;;;;;1.25;0.75;;;10.40;99.90;;;;;;4164132;28;20037;-64
2024/04/02 03:27:17;;;;;;;1.23;0.80;;;10.40;99.90;;;;;;4164614;28;20433;-64
2024/04/02 03:29:17;;;;;;;1.98;1.17;;;10.40;99.90;;;;;;4164671;28;20056;-64
2024/04/02 03:31:18;;;;;;;1.85;0.98;;;10.30;99.90;;;;;;4162720;28;20136;-64
2024/04/02 03:33:18;;;;;;;1.63;0.93;;;10.30;99.90;;;;;;4164415;28;20048;-64
2024/04/02 03:35:19;;;;;;;3.58;0.90;;;10.30;99.90;;;;;;4163856;28;20033;-64
2024/04/02 03:37:20;;;;;;;1.27;0.65;;;10.30;99.90;;;;;;4164262;28;20045;-64
2024/04/02 03:39:21;;;;;;;2.88;0.93;;;10.30;99.90;;;;;;4164404;28;20054;-64
2024/04/02 03:41:21;;;;;;;3.30;0.80;;;10.30;99.90;;;;;;4163978;28;20030;-64
2024/04/02 03:43:22;;;;;;;2.50;0.90;;;10.30;99.90;;;;;;4164479;28;20049;-64
2024/04/02 03:45:23;;;;;;;2.08;1.00;;;10.30;99.90;;;;;;4163815;28;20033;-68
2024/04/02 03:47:26;;;;;;;4.25;1.27;;;10.20;99.90;;;;;;4164407;28;20098;-64
2024/04/02 03:49:27;;;;;;;;;;;10.20;99.90;;;;;;4164511;28;20048;-64
2024/04/02 03:51:27;;;;;;;2.33;0.70;;;10.20;99.90;;;;;;4163623;28;19913;-64
2024/04/02 03:53:28;;;;;;;1.85;0.90;;;10.20;99.90;;;;;;4164139;28;20487;-64
2024/04/02 03:55:38;;;;;;;2.13;0.95;;;10.20;99.90;;;;;;4163277;28;20472;-64
2024/04/02 03:57:38;;;;;;;3.53;0.90;;;10.20;99.90;;;;;;4164319;28;20029;-64
2024/04/02 03:59:39;;;;;;;1.63;1.00;;;10.20;99.90;;;;;;4164288;28;20029;-64
2024/04/02 04:01:40;;;;;;;6.00;0.95;;;10.20;99.90;;;;;;4160034;28;20088;-64
2024/04/02 04:03:40;;;;;;;1.80;1.00;;;10.20;99.90;;;;;;4157815;28;20030;-65
2024/04/02 04:05:41;;;;;;;2.05;0.90;;;10.30;99.90;;;;;;4159353;28;20042;-65
2024/04/02 04:07:41;;;;;;;1.67;0.90;;;10.20;99.90;;;;;;4160291;28;20034;-65
2024/04/02 04:09:42;;;;;;;3.10;0.90;;;10.30;99.90;;;;;;4156602;28;20041;-66
2024/04/02 04:11:42;;;;;;;1.70;0.85;;;10.20;99.90;;;;;;4158221;28;20037;-65
2024/04/02 04:13:43;;;;;;;2.15;0.93;;;10.10;99.90;;;;;;4161004;28;20034;-64
2024/04/02 04:15:54;;;;;;;3.17;0.98;;;10.20;99.90;;;;;;4163319;28;20030;-64
2024/04/02 04:17:55;;;;;;;2.30;1.20;;;10.20;99.90;;;;;;4163920;28;20029;-64
2024/04/02 04:19:55;;;;;;;3.88;1.30;;;10.20;99.90;;;;;;4161907;28;20033;-64
2024/04/02 04:21:56;;;;;;;3.08;0.93;;;10.20;99.90;;;;;;4162593;28;20390;-64
2024/04/02 04:23:58;;;;;;;3.55;1.08;;;10.30;99.90;;;;;;4161245;28;20026;-64
2024/04/02 04:26:03;;;;;;;1.95;1.02;;;10.30;99.90;;;;;;4161696;28;20025;-64
2024/04/02 04:28:04;;;;;;;3.45;1.17;;;10.30;99.90;;;;;;4163493;28;20091;-64
2024/04/02 04:30:05;;;;;;;2.97;0.77;;;10.30;99.90;;;;;;4163274;28;20102;-65
2024/04/02 04:32:06;;;;;;;1.95;0.63;;;10.30;99.90;;;;;;4163298;28;20091;-64
2024/04/02 04:34:06;;;;;;;2.78;1.05;;;10.30;99.90;;;;;;4163455;28;20033;-64
2024/04/02 04:36:08;;;;;;;3.15;0.88;;;10.30;99.90;;;;;;4162807;28;20441;-64
2024/04/02 04:38:08;;;;;;;3.42;1.05;;;10.30;99.90;;;;;;4163563;28;20082;-64
2024/04/02 04:40:09;;;;;;;2.10;1.00;;;10.30;99.90;;;;;;4163155;28;20116;-64
2024/04/02 04:42:10;;;;;;;2.72;1.13;;;10.30;99.90;;;;;;4163467;28;20029;-64
2024/04/02 04:44:10;;;;;;;2.05;1.00;;;10.30;99.90;;;;;;4163551;28;20537;-64
2024/04/02 04:46:11;;;;;;;1.30;1.00;;;10.30;99.90;;;;;;4162708;28;20046;-65
2024/04/02 04:48:11;;;;;;;5.20;1.40;;;10.20;99.90;;;;;;4163295;28;20378;-64
2024/04/02 04:50:12;;;;;;;4.07;1.30;;;10.30;99.90;;;;;;4162731;28;20116;-65
2024/04/02 04:52:12;;;;;;;5.18;1.20;;;10.30;99.90;;;;;;4163149;28;20029;-64
2024/04/02 04:54:13;;;;;;;1.95;0.82;;;10.30;99.90;;;;;;4162893;28;20111;-65
2024/04/02 04:56:13;;;;;;;6.07;1.58;;;10.30;99.90;;;;;;4162940;28;20040;-67
2024/04/02 04:58:14;;;;;;;4.38;1.33;;;10.30;99.90;;;;;;4163226;28;20095;-67
2024/04/02 05:00:15;;;;;;;4.32;1.48;;;10.30;99.90;;;;;;4162610;28;20466;-66
2024/04/02 05:02:15;;;;;;;2.67;1.13;;;10.30;99.90;;;;;;4163057;28;20116;-67
2024/04/02 05:04:16;;;;;;;2.90;1.00;;;10.30;99.90;;;;;;4163062;28;20026;-67
2024/04/02 05:06:16;;;;;;;3.05;1.10;;;10.30;99.90;;;;;;4160604;28;20510;-67
2024/04/02 05:08:20;;;;;;;3.22;1.30;;;10.30;99.90;;;;;;4162178;28;20088;-67
2024/04/02 05:10:20;;;;;;;6.88;1.60;;;10.30;99.90;;;;;;4162457;28;20455;-67
2024/04/02 05:12:21;;;;;;;1.98;1.05;;;10.40;99.90;;;;;;4162840;28;20029;-66
2024/04/02 05:14:21;;;;;;;6.57;1.50;;;10.40;99.90;;;;;;4162943;28;20029;-66
2024/04/02 05:16:22;;;;;;;3.72;0.90;;;10.30;99.90;;;;;;4162400;28;20037;-66
2024/04/02 05:18:23;;;;;;;1.50;1.00;;;10.40;99.90;;;;;;4162745;28;20037;-66
2024/04/02 05:20:24;;;;;;;4.78;1.33;;;10.40;99.90;;;;;;4162168;28;20030;-66
2024/04/02 05:22:24;;;;;;;4.60;1.63;;;10.40;99.90;;;;;;4144941;28;20068;-67
2024/04/02 05:24:25;;;;;;;4.65;1.45;;;10.40;99.90;;;;;;4158429;28;20032;-67
2024/04/02 05:26:26;;;;;;;5.93;1.08;;;10.40;99.90;;;;;;4155559;28;20041;-68
2024/04/02 05:28:27;;;;;;;5.18;1.50;;;10.40;99.90;;;;;;4141919;28;20038;-59
2024/04/02 05:30:27;;;;;;;3.63;1.35;;;10.40;99.90;;;;;;4158802;28;20133;-59
2024/04/02 05:32:28;;;;;;;5.32;1.50;;;10.40;99.90;;;;;;4150447;28;20088;-65
2024/04/02 05:34:29;;;;;;;3.33;1.60;;;10.50;99.90;;;;;;4158457;28;20117;-65
2024/04/02 05:36:29;;;;;;;4.07;0.88;;;10.40;99.90;;;;;;4139079;28;20050;-65
2024/04/02 05:38:30;;;;;;;4.53;1.65;;;10.40;99.90;;;;;;4147990;28;20041;-65
2024/04/02 05:40:31;;;;;;;8.38;1.85;;;10.50;99.90;;;;;;4151276;28;21425;-65
2024/04/02 05:42:32;;;;;;;4.75;1.30;;;10.50;99.90;;;;;;4157904;28;20038;-65
2024/04/02 05:44:32;;;;;;;3.88;1.33;;;10.50;99.90;;;;;;4158637;28;20026;-65
2024/04/02 05:46:33;;;;;;;4.05;1.38;;;10.50;99.90;;;;;;4157436;28;20104;-65
2024/04/02 05:48:34;;;;;;;5.40;1.40;;;10.60;99.90;;;;;;4159458;28;20478;-65
2024/04/02 05:50:34;;;;;;;5.30;1.30;;;10.50;99.90;;;;;;4155765;28;20028;-65
2024/04/02 05:52:35;;;;;;;6.80;1.73;;;10.50;99.90;;;;;;4141157;28;20041;-65
2024/04/02 05:54:36;;;;;;;2.95;1.20;;;10.60;99.90;;;;;;4158167;28;20045;-65
2024/04/02 05:56:37;;;;;;;4.85;1.50;;;10.60;99.90;;;;;;4153908;28;20037;-65
2024/04/02 05:58:37;;;;;;;4.97;1.75;;;10.60;99.90;;;;;;4153707;28;20148;-65
2024/04/02 06:00:38;;;;;;;5.28;1.48;;;10.60;99.90;;;;;;4156820;28;20037;-65
2024/04/02 06:02:38;;;;;;;4.00;1.50;;;10.60;99.90;;;;;;4158776;28;20562;-65
2024/04/02 06:04:39;;;;;;;8.68;1.70;;;10.60;99.90;;;;;;4158216;28;20690;-59
2024/04/02 06:06:40;;;;;;;6.82;1.73;;;10.60;99.90;;;;;;4152984;28;20045;-59
2024/04/02 06:08:41;;;;;;;4.45;1.38;;;10.60;99.90;;;;;;4154200;28;20290;-59
2024/04/02 06:10:43;;;;;;;6.27;2.10;;;10.70;99.90;;;;;;4155280;28;20029;-59
2024/04/02 06:12:45;;;;;;;4.78;1.60;;;10.70;99.90;;;;;;4155346;28;20140;-59
2024/04/02 06:14:46;;;;;;;7.57;1.80;;;10.70;99.90;;;;;;4148821;28;20445;-60
2024/04/02 06:16:47;;;;;;;7.17;1.93;;;10.70;99.90;;;;;;4150247;28;20390;-59
2024/04/02 06:18:48;;;;;;;3.70;1.10;;;10.70;99.90;;;;;;4151709;28;20018;-59
2024/04/02 06:21:01;;;;;;;7.47;1.83;;;10.80;99.90;;;;;;4151225;28;20118;-59
2024/04/02 06:23:05;;;;;;;6.47;1.80;;;10.80;99.90;;;;;;4153386;28;20030;-59
2024/04/02 06:25:06;;;;;;;5.47;1.52;;;10.80;99.90;;;;;;4142189;28;20052;-60
2024/04/02 06:27:07;;;;;;;4.57;1.50;;;10.90;99.90;;;;;;4146964;28;20045;-59
2024/04/02 06:29:08;;;;;;;4.80;1.33;;;10.90;99.90;;;;;;4153025;28;20037;-59
2024/04/02 06:31:09;;;;;;;6.97;2.10;;;11.00;99.90;;;;;;4151104;28;20241;-59
2024/04/02 06:33:13;;;;;;;4.47;1.50;;;11.00;99.90;;;;;;4167474;28;20187;-59
2024/04/02 06:35:14;;;;;;;6.28;1.55;;;11.00;99.90;;;;;;4136676;28;20775;-59
2024/04/02 06:37:15;;;;;;;7.13;1.75;;;11.10;99.90;;;;;;4166258;28;20072;-59
2024/04/02 06:39:16;;;;;;;7.15;1.90;;;11.10;99.90;;;;;;4152888;28;20057;-59
2024/04/02 06:41:17;;;;;;;3.75;1.30;;;11.10;99.90;;;;;;4144825;28;20071;-59
2024/04/02 06:43:21;;;;;;;8.68;1.63;;;11.10;99.90;;;;;;4154933;28;20394;-59
2024/04/02 06:45:21;;;;;;;4.32;1.52;;;11.10;99.90;;;;;;4150818;28;20037;-63
2024/04/02 06:47:22;;;;;;;6.90;1.50;;;11.10;99.90;;;;;;4154414;28;20041;-60
2024/04/02 06:49:23;;;;;;;8.23;1.42;;;11.10;99.90;;;;;;4138598;28;20495;-59
2024/04/02 06:51:24;;;;;;;6.88;1.95;;;11.20;99.90;;;;;;4154532;28;20402;-59
2024/04/02 06:53:46;;;;;;;7.53;1.83;;;11.20;99.90;;;;;;4155572;28;20656;-60
2024/04/02 06:55:47;;;;;;;7.95;1.83;;;11.30;99.90;;;;;;4149918;28;20030;-59
2024/04/02 06:57:48;;;;;;;6.85;1.90;;;11.30;99.90;;;;;;4157928;28;20489;-59
2024/04/02 06:59:49;;;;;;;7.35;1.65;;;11.30;99.90;;;;;;4158211;28;20180;-59
2024/04/02 07:01:50;;;;;;;7.25;1.90;;;11.30;99.90;;;;;;4157002;28;20067;-59
2024/04/02 07:03:51;;;;;;;7.75;1.60;;;11.30;99.90;;;;;;4170693;28;20048;-59
2024/04/02 07:05:52;;;;;;;9.65;2.03;;;11.40;99.90;;;;;;4157117;28;20042;-59
2024/04/02 07:07:54;;;;;;;7.20;2.03;;;11.30;99.90;;;;;;4147877;28;20048;-61
2024/04/02 07:09:55;;;;;;;10.52;1.98;;;11.30;99.90;;;;;;4162111;28;20041;-60
2024/04/02 07:11:56;;;;;;;5.95;1.70;;;11.30;99.90;;;;;;4157739;28;20034;-59
2024/04/02 07:13:57;;;;;;;9.82;1.73;;;11.30;99.90;;;;;;4155448;28;20037;-60
2024/04/02 07:15:58;;;;;;;8.45;1.95;;;11.30;99.90;;;;;;4154526;28;20061;-65
2024/04/02 07:17:59;;;;;;;8.85;1.95;;;11.40;99.90;;;;;;4184855;28;20041;-64
2024/04/02 07:20:00;;;;;;;6.65;2.13;;;11.40;99.90;;;;;;4152719;28;20404;-65
2024/04/02 07:22:01;;;;;;;5.82;1.63;;;11.40;99.90;;;;;;4156332;28;20498;-65
2024/04/02 07:24:02;;;;;;;8.13;2.10;;;11.40;99.90;;;;;;4153598;28;20045;-65
2024/04/02 07:26:03;;;;;;;9.02;2.30;;;11.40;99.90;;;;;;4153953;28;20046;-64
2024/04/02 07:28:04;;;;;;;13.07;2.40;;;11.40;99.90;;;;;;4158246;28;20567;-63
2024/04/02 07:30:05;;;;;;;7.78;1.65;;;11.40;99.90;;;;;;4154430;28;20072;-64
2024/04/02 07:32:06;;;;;;;6.15;1.63;;;11.30;99.90;;;;;;4156973;28;20034;-63
2024/04/02 07:34:07;;;;;;;8.00;2.00;;;11.40;99.90;;;;;;4156455;28;20060;-63
2024/04/02 07:36:07;;;;;;;5.63;1.60;;;11.40;99.90;;;;;;4155140;28;20068;-63
2024/04/02 07:38:09;;;;;;;12.75;2.85;;;11.40;99.90;;;;;;4173945;28;20041;-63
2024/04/02 07:40:10;;;;;;;5.80;1.97;;;11.40;99.90;;;;;;4156880;28;20135;-63
2024/04/02 07:42:11;;;;;;;6.50;1.70;;;11.40;99.90;;;;;;4158743;28;20105;-63
2024/04/02 07:44:11;;;;;;;8.75;2.00;;;11.40;99.90;;;;;;4159109;28;20501;-63
2024/04/02 07:46:12;;;;;;;6.32;1.90;;;11.40;99.90;;;;;;4156685;28;20405;-63
2024/04/02 07:48:12;;;;;;;7.13;1.77;;;11.40;99.90;;;;;;4159189;28;20452;-63
2024/04/02 07:50:13;;;;;;;13.90;2.50;;;11.40;99.90;;;;;;4155719;28;20041;-64
2024/04/02 07:52:14;;;;;;;8.75;1.67;;;11.40;99.90;;;;;;4161007;28;20033;-63
2024/04/02 07:54:15;;;;;;;6.88;1.80;;;11.40;99.90;;;;;;4155981;28;20068;-63
2024/04/02 07:56:15;;;;;;;7.45;1.80;;;11.30;99.90;;;;;;4152218;28;20051;-63
2024/04/02 07:58:16;;;;;;;5.32;1.60;;;11.40;99.90;;;;;;4149949;28;20056;-63
2024/04/02 08:00:17;;;;;;;8.52;1.67;;;11.40;99.90;;;;;;4153637;28;20547;-63
2024/04/02 08:02:18;;;;;;;7.78;2.22;;;11.40;99.90;;;;;;4158514;28;20497;-63
2024/04/02 08:04:20;;;;;;;7.85;2.00;;;11.40;99.90;;;;;;4158387;28;20029;-63
2024/04/02 08:06:20;;;;;;;6.57;2.15;;;11.40;99.90;;;;;;4151390;28;20041;-69
2024/04/02 08:08:21;;;;;;;7.25;1.70;;;11.40;99.90;;;;;;4171436;28;20115;-69
2024/04/02 08:10:22;;;;;;;9.30;2.00;;;11.40;99.90;;;;;;4157600;28;20043;-69
2024/04/02 08:12:22;;;;;;;7.63;1.67;;;11.50;99.90;;;;;;4151685;28;20096;-69
2024/04/02 08:14:28;;;;;;;6.20;1.77;;;11.50;99.90;;;;;;4186252;28;20353;-69
2024/04/02 08:16:29;;;;;;;6.80;1.60;;;11.50;99.90;;;;;;4153452;28;20068;-69
2024/04/02 08:18:29;;;;;;;3.78;1.38;;;11.50;99.90;;;;;;4172318;28;20036;-69
2024/04/02 08:20:30;;;;;;;9.38;1.92;;;11.50;99.90;;;;;;4155704;28;20068;-69
2024/04/02 08:22:31;;;;;;;5.95;1.67;;;11.50;99.90;;;;;;4155186;28;20038;-69
2024/04/02 08:24:31;;;;;;;5.53;1.95;;;11.50;99.90;;;;;;4153788;28;20497;-69
2024/04/02 08:26:32;;;;;;;8.48;1.75;;;11.50;99.90;;;;;;4182921;28;20441;-69
2024/04/02 08:28:33;;;;;;;6.50;1.80;;;11.50;99.90;;;;;;4144354;28;20049;-69
2024/04/02 08:30:41;;;;;;;8.75;2.03;;;11.50;99.90;;;;;;4152713;28;20092;-69
2024/04/02 08:32:42;;;;;;;7.53;1.88;;;11.50;99.90;;;;;;4145222;28;20041;-69
2024/04/02 08:34:44;;;;;;;5.10;1.40;;;11.50;99.90;;;;;;4151943;28;20117;-65
2024/04/02 08:36:44;;;;;;;4.85;1.63;;;11.50;99.90;;;;;;4151998;28;20045;-65
2024/04/02 08:38:45;;;;;;;4.10;1.60;;;11.50;99.90;;;;;;4167627;28;20040;-65
2024/04/02 08:40:54;;;;;;;6.00;1.63;;;11.60;99.90;;;;;;4150554;28;20114;-65
2024/04/02 08:42:58;;;;;;;3.38;1.20;;;11.60;99.90;;;;;;4153785;28;20045;-65
2024/04/02 08:45:06;;;;;;;13.50;2.30;;;11.60;99.90;;;;;;4159152;28;20036;-65
2024/04/02 08:47:11;;;;;;;7.15;1.75;;;11.60;99.90;;;;;;4150445;28;20124;-65
2024/04/02 08:49:12;;;;;;;7.30;1.50;;;11.60;99.90;;;;;;4151898;28;20120;-65
2024/04/02 08:51:14;;;;;;;7.90;1.75;;;11.60;99.90;;;;;;4152600;28;20710;-65
2024/04/02 08:53:15;;;;;;;7.68;1.77;;;11.60;99.90;;;;;;4153335;28;20038;-64
2024/04/02 08:55:18;;;;;;;5.63;1.48;;;11.60;99.90;;;;;;4153383;28;20390;-65
2024/04/02 08:57:20;;;;;;;4.75;1.30;;;11.70;99.90;;;;;;4151390;28;20097;-65
2024/04/02 08:59:25;;;;;;;4.18;1.55;;;11.70;99.90;;;;;;4156101;28;20040;-65
2024/04/02 09:01:26;;;;;;;5.30;1.25;;;11.70;99.90;;;;;;4150297;28;20087;-65
2024/04/02 09:03:27;;;;;;;9.05;1.90;;;11.80;99.90;;;;;;4156123;28;20034;-65
2024/04/02 09:05:31;;;;;;;5.07;1.42;;;11.80;99.90;;;;;;4145930;28;20049;-65
2024/04/02 09:07:32;;;;;;;5.40;1.42;;;11.80;99.90;;;;;;4165524;28;20068;-65
2024/04/02 09:09:34;;;;;;;6.07;1.52;;;11.80;99.90;;;;;;4147760;28;20034;-65
2024/04/02 09:11:35;;;;;;;3.00;1.20;;;11.90;99.90;;;;;;4155537;28;20045;-65
2024/04/02 09:13:39;;;;;;;5.55;1.92;;;11.90;99.90;;;;;;4160457;28;20076;-65
2024/04/02 09:15:40;;;;;;;5.63;1.67;;;11.90;99.90;;;;;;4137390;28;20145;-65
2024/04/02 09:17:41;;;;;;;3.50;1.33;;;11.90;99.90;;;;;;4151795;28;20041;-65
2024/04/02 09:19:44;;;;;;;9.23;1.77;;;12.00;99.90;;;;;;4153624;28;20124;-65
2024/04/02 09:21:44;;;;;;;4.22;1.40;;;12.00;99.90;;;;;;4149976;28;20057;-66
2024/04/02 09:23:45;;;;;;;10.15;2.15;;;12.00;99.90;;;;;;4161847;28;20394;-66
2024/04/02 09:25:48;;;;;;;3.75;1.20;;;12.10;99.90;;;;;;4152204;28;20034;-65
2024/04/02 09:27:50;;;;;;;4.00;1.38;;;12.10;99.90;;;;;;4167108;28;20082;-65
2024/04/02 09:29:54;;;;;;;10.68;1.95;;;12.10;99.90;;;;;;4155738;28;20034;-65
2024/04/02 09:31:57;;;;;;;7.38;1.65;;;12.20;99.90;;;;;;4147264;28;20353;-64
2024/04/02 09:34:03;;;;;;;5.40;1.63;;;12.20;99.90;;;;;;4186803;28;20039;-65
2024/04/02 09:36:13;;;;;;;4.78;1.75;;;12.30;99.90;;;;;;4152850;28;22186;-65
2024/04/02 09:38:16;;;;;;;6.18;1.40;;;12.30;99.90;;;;;;4149628;28;20128;-64
2024/04/02 09:40:21;;;;;;;6.07;1.52;;;12.40;99.90;;;;;;4163691;28;20067;-65
2024/04/02 09:42:23;;;;;;;8.45;1.50;;;12.40;99.90;;;;;;4154171;28;20029;-65
2024/04/02 09:44:26;;;;;;;4.32;1.30;;;12.40;99.90;;;;;;4154398;28;20084;-65
2024/04/02 09:46:28;;;;;;;;;;;12.30;99.90;;;;;;4151780;28;20892;-65
2024/04/02 09:48:34;;;;;;;7.45;1.80;;;12.30;99.90;;;;;;4152856;28;19921;-65
2024/04/02 09:50:36;;;;;;;4.68;1.33;;;12.30;99.90;;;;;;4169573;28;20336;-65
2024/04/02 09:52:37;;;;;;;;;;;12.30;99.90;;;;;;4154620;28;20045;-65
2024/04/02 09:54:42;;;;;;;5.30;1.73;;;12.30;99.90;;;;;;4153741;28;19921;-63
2024/04/02 09:56:44;;;;;;;8.52;1.40;;;12.30;99.90;;;;;;4153136;28;20108;-64
2024/04/02 09:58:48;;;;;;;5.57;1.40;;;12.30;99.90;;;;;;4154015;28;20037;-65
2024/04/02 10:00:54;;;;;;;3.45;1.30;;;12.30;99.90;;;;;;4151115;28;20483;-65
2024/04/02 10:02:55;;;;;;;5.55;1.10;;;12.30;99.90;;;;;;4153645;28;20049;-65
2024/04/02 10:04:56;;;;;;;7.53;1.65;;;12.40;99.90;;;;;;4153148;28;20041;-65
2024/04/02 10:06:57;;;;;;;5.50;1.65;;;12.40;99.90;;;;;;4153270;28;20045;-64
2024/04/02 10:09:01;;;;;;;4.43;1.40;;;12.40;99.90;;;;;;4153396;28;20446;-64
2024/04/02 10:11:05;;;;;;;5.07;1.58;;;12.40;99.90;;;;;;4150769;28;20034;-65
2024/04/02 10:13:07;;;;;;;4.60;1.17;;;12.50;99.90;;;;;;4153585;28;20029;-65
2024/04/02 10:15:11;;;;;;;6.57;1.60;;;12.60;99.90;;;;;;4151995;28;20117;-65
2024/04/02 10:17:17;;;;;;;4.68;1.60;;;12.60;99.90;;;;;;4153165;28;20095;-65
2024/04/02 10:19:29;;;;;;;5.43;1.55;;;12.70;99.90;;;;;;4151613;28;20501;-64
2024/04/02 10:21:32;;;;;;;5.40;1.38;;;12.80;99.90;;;;;;4149540;28;20034;-65
2024/04/02 10:23:33;;;;;;;13.20;2.10;;;12.80;99.90;;;;;;4153748;28;20068;-65
2024/04/02 10:25:37;;;;;;;8.73;1.98;;;12.90;99.90;;;;;;4154191;28;20084;-65
2024/04/02 10:27:42;;;;;;;4.80;1.67;;;12.80;99.90;;;;;;4154117;28;20542;-65
2024/04/02 10:29:42;;;;;;;9.60;1.83;;;12.80;99.90;;;;;;4154205;28;20041;-64
2024/04/02 10:31:44;;;;;;;2.92;1.02;;;12.80;99.90;;;;;;4152422;28;20041;-64
2024/04/02 10:33:48;;;;;;;9.07;1.88;;;12.80;99.90;;;;;;4153556;28;20131;-65